Startpagina
METAR-TAF:

METAR-TAF

Vliegvelden :

Brussel, België

Brussels Airport. Zaventem

breedte: 50-54N, lengte: 004-32E, hoogte: 55 m

Actueel weer

Dit bericht is 38 minuten geleden gemaakt, om 09:50 UTC
Wind 6 kt uit het zuiden
Temperatuur 16°C
Vochtigheid 63%
Druk 1020 hPa
Zicht 10 km of meer
geen wolken onder 1500 m en geen cumulonimbus

METAR: EBBR 210950Z 18006KT CAVOK 16/09 Q1020 NOSIG

Tijdstip: 12:28 (10:28 UTC)

Verwachting

Dit bericht is 5 uur en het 18 minuten geleden gemaakt, om 05:10 UTC
Verwachting geldig van 21 om 06 UTC tot 22 om 12 UTC
Wind 7 kt uit het zuiden
Zicht 10 km of meer
geen wolken onder 1500 m en geen cumulonimbus
Tijdelijke
van 22 om 08 UTC tot 22 om 10 UTC
Gebroken wolken op 1400 ft

TAF: EBBR 210510Z 2106/2212 18007KT CAVOK TEMPO 2208/2210 BKN014

Waarnemingen en weersverwachtingen van meer dan 4000 vliegvelden (METAR en TAF).

De beschikbare stations zijn de gele en rode punten op de kaart.

Ga met uw muis naar het station om de naam te zien.

Klik dan om waarnemingen en weersverwachtingen te zien.

kaart wijzigen: klik op de groene knoppen met een zwart kruis om in te zoomen, op de groene knop met een streepje om uit te zoomen of op de groene pijlen voor aangrenzende kaarten.


METAR-TAF: